createdAt,value
2019-02-07T00:01:12.475Z,1.20
2019-02-07T00:04:19.436Z,1.80
2019-02-07T00:07:25.965Z,3.10
2019-02-07T00:10:32.544Z,3.40
2019-02-07T00:13:39.773Z,5.57
2019-02-07T00:16:46.705Z,4.40
2019-02-07T00:19:53.405Z,1.63
2019-02-07T00:22:59.490Z,1.33
2019-02-07T00:26:06.242Z,1.40
2019-02-07T00:29:12.853Z,1.50
2019-02-07T00:32:19.456Z,1.50
2019-02-07T00:35:26.047Z,1.50
2019-02-07T00:38:32.304Z,1.50
2019-02-07T00:41:41.482Z,1.30
2019-02-07T00:44:50.742Z,1.53
2019-02-07T00:47:56.317Z,2.73
2019-02-07T00:51:02.752Z,1.20
2019-02-07T00:54:09.243Z,1.63
2019-02-07T00:57:15.754Z,1.87
2019-02-07T01:00:23.465Z,1.70
2019-02-07T01:03:29.928Z,1.27
2019-02-07T01:06:37.225Z,1.60
2019-02-07T01:09:44.018Z,1.47
2019-02-07T01:12:51.106Z,1.13
2019-02-07T01:15:57.853Z,1.47
2019-02-07T01:19:05.752Z,1.80
2019-02-07T01:22:12.884Z,1.10
2019-02-07T01:25:20.761Z,1.10
2019-02-07T01:28:27.602Z,1.33
2019-02-07T01:31:34.828Z,1.43
2019-02-07T01:34:41.264Z,1.40
2019-02-07T01:37:47.999Z,1.03
2019-02-07T01:40:54.628Z,1.30
2019-02-07T01:44:01.177Z,1.33
2019-02-07T01:47:07.820Z,1.03
2019-02-07T01:50:16.075Z,0.80
2019-02-07T01:53:22.683Z,1.00
2019-02-07T01:56:29.075Z,1.13
2019-02-07T01:59:35.347Z,1.00
2019-02-07T02:02:42.194Z,0.90
2019-02-07T02:05:48.692Z,1.10
2019-02-07T02:08:55.059Z,1.30
2019-02-07T02:12:01.541Z,0.90
2019-02-07T02:15:08.868Z,0.80
2019-02-07T02:18:15.537Z,0.73
2019-02-07T02:21:22.149Z,0.70
2019-02-07T02:24:28.702Z,0.90
2019-02-07T02:27:35.725Z,1.40
2019-02-07T02:30:42.234Z,0.97
2019-02-07T02:33:49.409Z,0.93
2019-02-07T02:36:56.108Z,1.00
2019-02-07T02:40:02.471Z,0.90
2019-02-07T02:43:09.930Z,0.67
2019-02-07T02:46:16.462Z,0.70
2019-02-07T02:49:22.962Z,0.97
2019-02-07T02:52:29.715Z,1.10
2019-02-07T02:55:42.248Z,0.87
2019-02-07T02:58:48.943Z,1.03
2019-02-07T03:02:05.376Z,0.90
2019-02-07T03:05:30.822Z,1.00
2019-02-07T03:09:06.949Z,0.63
2019-02-07T03:12:43.876Z,0.93
2019-02-07T03:16:15.356Z,0.87
2019-02-07T03:19:59.849Z,1.15
2019-02-07T03:23:34.146Z,1.10
2019-02-07T03:26:59.660Z,1.20
2019-02-07T03:30:29.753Z,1.03
2019-02-07T03:34:08.453Z,0.87
2019-02-07T03:37:42.886Z,1.10
2019-02-07T03:41:06.825Z,1.40
2019-02-07T03:44:31.199Z,1.33
2019-02-07T03:47:55.409Z,1.10
2019-02-07T03:51:19.926Z,1.00
2019-02-07T03:54:51.964Z,1.13
2019-02-07T03:58:26.166Z,1.07
2019-02-07T04:01:53.350Z,1.30
2019-02-07T04:05:17.452Z,1.20
2019-02-07T04:08:41.565Z,0.90
2019-02-07T04:12:15.885Z,1.20
2019-02-07T04:15:56.421Z,1.10
2019-02-07T04:19:20.645Z,1.20
2019-02-07T04:22:40.917Z,0.90
2019-02-07T04:26:05.332Z,0.87
2019-02-07T04:29:29.560Z,1.00
2019-02-07T04:33:00.998Z,1.20
2019-02-07T04:36:45.480Z,1.00
2019-02-07T04:40:19.104Z,1.03
2019-02-07T04:43:56.872Z,0.90
2019-02-07T04:47:28.278Z,0.80
2019-02-07T04:50:58.855Z,1.40
2019-02-07T04:54:24.781Z,0.93
2019-02-07T04:57:49.036Z,1.20
2019-02-07T05:01:06.013Z,1.00
2019-02-07T05:04:20.318Z,1.20
2019-02-07T05:07:46.481Z,5.40
2019-02-07T05:11:29.106Z,4.47
2019-02-07T05:14:53.342Z,3.73
2019-02-07T05:18:30.630Z,3.03
2019-02-07T05:21:55.165Z,2.40
2019-02-07T05:25:32.723Z,3.57
2019-02-07T05:28:56.623Z,2.60
2019-02-07T05:32:15.515Z,2.10
2019-02-07T05:35:48.311Z,2.40
2019-02-07T05:39:14.085Z,2.20
2019-02-07T05:42:38.151Z,2.20
2019-02-07T05:46:02.645Z,2.10
2019-02-07T05:49:30.373Z,1.73
2019-02-07T05:53:05.258Z,1.20
2019-02-07T05:56:28.793Z,3.30
2019-02-07T06:00:00.455Z,4.37
2019-02-07T06:03:29.745Z,3.33
2019-02-07T06:06:54.295Z,4.17
2019-02-07T06:10:30.894Z,2.57
2019-02-07T06:13:55.216Z,2.10
2019-02-07T06:17:19.192Z,7.53
2019-02-07T06:20:32.609Z,13.00
2019-02-07T06:23:58.893Z,5.67
2019-02-07T06:27:34.337Z,6.80
2019-02-07T06:30:59.777Z,4.50
2019-02-07T06:34:29.001Z,4.00
2019-02-07T06:37:49.069Z,3.90
2019-02-07T06:41:10.449Z,5.87
2019-02-07T06:44:36.094Z,3.90
2019-02-07T06:48:19.599Z,3.60
2019-02-07T06:51:53.700Z,3.13
2019-02-07T06:55:17.737Z,3.60
2019-02-07T06:58:37.419Z,4.67
2019-02-07T07:02:05.309Z,3.70
2019-02-07T07:05:46.266Z,4.37
2019-02-07T07:09:18.091Z,2.80
2019-02-07T07:12:42.891Z,2.97
2019-02-07T07:16:06.993Z,4.10
2019-02-07T07:19:31.518Z,6.03
2019-02-07T07:23:15.285Z,5.33
2019-02-07T07:26:39.265Z,6.00
2019-02-07T07:30:04.769Z,7.30
2019-02-07T07:33:40.012Z,6.40
2019-02-07T07:37:11.641Z,4.80
2019-02-07T07:40:35.377Z,4.40
2019-02-07T07:44:10.216Z,5.37
2019-02-07T07:47:39.011Z,4.50
2019-02-07T07:51:13.721Z,4.17
2019-02-07T07:54:39.197Z,3.80
2019-02-07T07:58:10.732Z,3.60
2019-02-07T08:01:36.454Z,4.37
2019-02-07T08:04:58.336Z,4.90
2019-02-07T08:08:30.245Z,3.83
2019-02-07T08:11:53.084Z,3.90
2019-02-07T08:15:17.194Z,3.60
2019-02-07T08:18:49.211Z,3.83
2019-02-07T08:22:08.115Z,4.50
2019-02-07T08:25:42.778Z,8.70
2019-02-07T08:29:08.070Z,6.87
2019-02-07T08:32:43.100Z,7.33
2019-02-07T08:36:24.249Z,5.73
2019-02-07T08:39:39.069Z,6.90
2019-02-07T08:43:03.558Z,8.10
2019-02-07T08:46:28.963Z,5.50
2019-02-07T08:49:58.178Z,8.80
2019-02-07T08:53:22.892Z,8.17
2019-02-07T08:57:00.580Z,7.17
2019-02-07T09:00:32.625Z,5.80
2019-02-07T09:04:13.559Z,7.07
2019-02-07T09:07:51.682Z,6.73
2019-02-07T09:11:22.883Z,6.40
2019-02-07T09:14:42.477Z,7.37
2019-02-07T09:18:13.426Z,5.07
2019-02-07T09:21:38.014Z,5.23
2019-02-07T09:25:06.287Z,5.50
2019-02-07T09:28:50.071Z,5.03
2019-02-07T09:32:10.523Z,5.27
2019-02-07T09:35:48.431Z,4.63
2019-02-07T09:39:14.393Z,4.70
2019-02-07T09:42:38.302Z,5.00
2019-02-07T09:46:06.870Z,4.77
2019-02-07T09:49:35.077Z,5.13
2019-02-07T09:53:01.530Z,6.40
2019-02-07T09:56:33.193Z,7.47
2019-02-07T09:59:58.279Z,6.67
2019-02-07T10:03:14.473Z,6.70
2019-02-07T10:06:49.053Z,6.80
2019-02-07T10:10:21.586Z,5.50
2019-02-07T10:13:37.572Z,6.00
2019-02-07T10:17:06.126Z,5.40
2019-02-07T10:20:33.901Z,5.87
2019-02-07T10:23:48.154Z,6.30
2019-02-07T10:27:16.325Z,6.23
2019-02-07T10:30:51.470Z,5.67
2019-02-07T10:34:36.557Z,7.40
2019-02-07T10:38:02.599Z,7.70
2019-02-07T10:41:35.406Z,10.60
2019-02-07T10:45:06.875Z,13.97
2019-02-07T10:48:48.011Z,9.57
2019-02-07T10:52:13.493Z,9.10
2019-02-07T10:55:54.092Z,8.40
2019-02-07T10:59:19.284Z,8.50
2019-02-07T11:03:00.225Z,8.40
2019-02-07T11:06:31.786Z,9.20
2019-02-07T11:10:00.280Z,8.63
2019-02-07T11:13:29.502Z,9.00
2019-02-07T11:16:54.723Z,9.40
2019-02-07T11:20:24.004Z,9.20
2019-02-07T11:23:53.222Z,10.10
2019-02-07T11:27:21.413Z,9.27
2019-02-07T11:31:01.918Z,10.63
2019-02-07T11:34:33.432Z,10.27
2019-02-07T11:37:56.683Z,10.67
2019-02-07T11:41:23.544Z,10.83
2019-02-07T11:44:54.226Z,10.50
2019-02-07T11:48:18.982Z,11.17
2019-02-07T11:51:53.435Z,10.17
2019-02-07T11:55:26.097Z,10.23
2019-02-07T11:58:51.341Z,9.67
2019-02-07T12:02:23.751Z,10.10
2019-02-07T12:05:55.373Z,10.47
2019-02-07T12:09:21.202Z,11.27
2019-02-07T12:12:50.013Z,10.73
2019-02-07T12:16:04.720Z,10.90
2019-02-07T12:19:42.035Z,10.77
2019-02-07T12:23:19.394Z,11.37
2019-02-07T12:26:53.939Z,10.33
2019-02-07T12:30:18.939Z,11.77
2019-02-07T12:33:59.706Z,10.60
2019-02-07T12:37:23.827Z,10.77
2019-02-07T12:40:53.169Z,10.37
2019-02-07T12:44:23.317Z,10.30
2019-02-07T12:47:59.518Z,10.67
2019-02-07T12:51:29.743Z,9.93
2019-02-07T12:54:48.799Z,8.87
2019-02-07T12:58:05.573Z,9.37
2019-02-07T13:01:41.931Z,10.40
2019-02-07T13:05:06.868Z,8.83
2019-02-07T13:08:33.220Z,10.23
2019-02-07T13:12:02.475Z,8.60
2019-02-07T13:15:32.228Z,8.80
2019-02-07T13:18:54.946Z,11.03
2019-02-07T13:22:15.532Z,9.80
2019-02-07T13:25:48.061Z,10.23
2019-02-07T13:29:17.264Z,10.00
2019-02-07T13:32:45.659Z,11.27
2019-02-07T13:36:05.748Z,10.40
2019-02-07T13:39:27.132Z,10.70
2019-02-07T13:42:47.242Z,9.70
2019-02-07T13:46:08.018Z,10.33
2019-02-07T13:49:32.311Z,10.37
2019-02-07T13:53:07.070Z,10.60
2019-02-07T13:56:37.998Z,10.03
2019-02-07T14:00:09.052Z,11.13
2019-02-07T14:03:41.776Z,10.27
2019-02-07T14:07:05.912Z,10.50
2019-02-07T14:10:34.894Z,10.40
2019-02-07T14:14:09.092Z,10.87
2019-02-07T14:17:34.504Z,9.53
2019-02-07T14:21:10.344Z,10.20
2019-02-07T14:24:34.504Z,9.20
2019-02-07T14:27:51.887Z,11.23
2019-02-07T14:31:12.628Z,12.30
2019-02-07T14:34:45.561Z,13.70
2019-02-07T14:38:18.893Z,13.20
2019-02-07T14:41:56.445Z,11.73
2019-02-07T14:45:19.951Z,12.10
2019-02-07T14:48:29.377Z,12.13
2019-02-07T14:51:45.664Z,11.73
2019-02-07T14:54:57.695Z,12.50
2019-02-07T14:58:08.588Z,12.03
2019-02-07T15:01:20.012Z,12.80
2019-02-07T15:04:27.055Z,12.03
2019-02-07T15:07:33.847Z,11.50
2019-02-07T15:10:40.640Z,11.20
2019-02-07T15:13:47.137Z,11.50
2019-02-07T15:16:53.462Z,13.90
2019-02-07T15:20:01.004Z,13.30
2019-02-07T15:23:07.893Z,13.43
2019-02-07T15:26:14.501Z,14.50
2019-02-07T15:29:21.741Z,13.57
2019-02-07T15:32:28.411Z,13.60
2019-02-07T15:35:38.045Z,14.23
2019-02-07T15:38:44.924Z,15.47
2019-02-07T15:41:52.499Z,14.90
2019-02-07T15:45:00.405Z,14.20
2019-02-07T15:48:07.246Z,13.83
2019-02-07T15:51:14.399Z,14.40
2019-02-07T15:54:21.173Z,15.10
2019-02-07T15:57:27.767Z,14.03
2019-02-07T16:00:49.539Z,14.00
2019-02-07T16:04:01.504Z,14.60
2019-02-07T16:07:07.883Z,14.67
2019-02-07T16:10:16.022Z,15.33
2019-02-07T16:13:23.231Z,14.20
2019-02-07T16:16:31.072Z,14.70
2019-02-07T16:19:38.319Z,14.07
2019-02-07T16:22:45.667Z,14.87
2019-02-07T16:25:52.330Z,13.50
2019-02-07T16:29:01.503Z,15.87
2019-02-07T16:32:09.007Z,17.20
2019-02-07T16:35:17.497Z,16.07
2019-02-07T16:38:24.390Z,14.87
2019-02-07T16:41:32.728Z,15.77
2019-02-07T16:44:40.272Z,15.20
2019-02-07T16:47:47.551Z,14.63
2019-02-07T16:51:00.276Z,14.53
2019-02-07T16:54:04.245Z,14.77
2019-02-07T16:57:13.179Z,14.00
2019-02-07T17:00:21.880Z,15.33
2019-02-07T17:03:29.419Z,14.03
2019-02-07T17:06:37.115Z,13.90
2019-02-07T17:09:45.527Z,12.60
2019-02-07T17:12:53.087Z,13.67
2019-02-07T17:16:03.076Z,11.60
2019-02-07T17:19:15.905Z,11.17
2019-02-07T17:22:28.441Z,11.33
2019-02-07T17:25:35.237Z,11.83
2019-02-07T17:28:42.559Z,10.97
2019-02-07T17:31:50.524Z,12.40
2019-02-07T17:34:57.918Z,10.80
2019-02-07T17:38:05.185Z,10.83
2019-02-07T17:41:14.042Z,11.80
2019-02-07T17:44:21.653Z,12.00
2019-02-07T17:47:28.248Z,10.80
2019-02-07T17:50:35.829Z,11.97
2019-02-07T17:53:43.593Z,10.77
2019-02-07T17:56:51.027Z,12.43
2019-02-07T18:00:01.190Z,12.87
2019-02-07T18:03:09.549Z,13.27
2019-02-07T18:06:16.166Z,13.50
2019-02-07T18:09:23.271Z,13.20
2019-02-07T18:12:31.020Z,12.60
2019-02-07T18:15:37.763Z,11.97
2019-02-07T18:18:45.115Z,13.07
2019-02-07T18:21:53.875Z,13.13
2019-02-07T18:25:01.224Z,12.40
2019-02-07T18:28:11.261Z,13.17
2019-02-07T18:31:20.276Z,12.63
2019-02-07T18:34:27.995Z,13.50
2019-02-07T18:37:35.216Z,12.70
2019-02-07T18:40:43.046Z,13.90
2019-02-07T18:43:50.063Z,13.30
2019-02-07T18:46:57.552Z,12.47
2019-02-07T18:50:06.121Z,12.70
2019-02-07T18:53:13.386Z,15.53
2019-02-07T18:56:20.624Z,13.57
2019-02-07T18:59:27.910Z,13.17
2019-02-07T19:02:34.964Z,13.70
2019-02-07T19:05:41.873Z,14.60
2019-02-07T19:08:48.504Z,13.80
2019-02-07T19:11:56.261Z,12.27
2019-02-07T19:15:03.435Z,13.67
2019-02-07T19:18:12.714Z,15.10
2019-02-07T19:21:20.181Z,14.33
2019-02-07T19:24:27.163Z,14.43
2019-02-07T19:27:34.169Z,14.40
2019-02-07T19:30:41.707Z,14.53
2019-02-07T19:33:48.666Z,16.13
2019-02-07T19:36:56.215Z,14.93
2019-02-07T19:40:03.647Z,15.23
2019-02-07T19:43:10.207Z,14.77
2019-02-07T19:46:16.911Z,14.27
2019-02-07T19:49:25.039Z,14.70
2019-02-07T19:52:31.802Z,15.40
2019-02-07T19:55:39.371Z,14.53
2019-02-07T19:58:47.462Z,15.67
2019-02-07T20:01:54.524Z,14.37
2019-02-07T20:05:01.421Z,17.50
2019-02-07T20:08:07.898Z,16.43
2019-02-07T20:11:16.168Z,15.47
2019-02-07T20:14:22.998Z,17.03
2019-02-07T20:17:30.005Z,15.30
2019-02-07T20:20:36.767Z,15.80
2019-02-07T20:23:44.796Z,16.07
2019-02-07T20:26:52.831Z,15.90
2019-02-07T20:29:59.103Z,16.90
2019-02-07T20:33:07.285Z,16.10
2019-02-07T20:36:13.959Z,14.60
2019-02-07T20:39:20.710Z,16.00
2019-02-07T20:42:28.167Z,15.37
2019-02-07T20:45:34.774Z,14.87
2019-02-07T20:48:41.414Z,15.63
2019-02-07T20:51:48.615Z,17.97
2019-02-07T20:54:54.954Z,15.17
2019-02-07T20:58:01.395Z,16.27
2019-02-07T21:01:07.940Z,15.20
2019-02-07T21:04:15.540Z,15.70
2019-02-07T21:07:22.618Z,15.57
2019-02-07T21:10:30.227Z,16.47
2019-02-07T21:13:38.966Z,14.33
2019-02-07T21:16:45.762Z,15.43
2019-02-07T21:19:52.632Z,15.13
2019-02-07T21:23:01.262Z,15.90
2019-02-07T21:26:08.667Z,15.77
2019-02-07T21:29:17.928Z,16.13
2019-02-07T21:32:25.527Z,13.60
2019-02-07T21:35:33.013Z,14.23
2019-02-07T21:38:39.825Z,13.00
2019-02-07T21:41:47.135Z,12.87
2019-02-07T21:44:53.772Z,12.20
2019-02-07T21:48:01.569Z,11.27
2019-02-07T21:51:08.994Z,13.53
2019-02-07T21:54:16.016Z,12.47
2019-02-07T21:57:24.020Z,14.13
2019-02-07T22:00:33.228Z,13.13
2019-02-07T22:03:40.075Z,15.00
2019-02-07T22:06:46.864Z,12.60
2019-02-07T22:09:53.845Z,14.67
2019-02-07T22:13:01.542Z,13.60
2019-02-07T22:16:08.715Z,13.20
2019-02-07T22:19:15.937Z,11.47
2019-02-07T22:22:23.157Z,11.93
2019-02-07T22:25:29.818Z,13.13
2019-02-07T22:28:36.587Z,11.97
2019-02-07T22:31:43.971Z,13.13
2019-02-07T22:34:50.411Z,11.70
2019-02-07T22:37:57.278Z,11.37
2019-02-07T22:41:04.073Z,11.80
2019-02-07T22:44:10.623Z,11.33
2019-02-07T22:47:17.670Z,11.27
2019-02-07T22:50:25.977Z,11.97
2019-02-07T22:53:32.451Z,11.80
2019-02-07T22:56:45.262Z,11.20
2019-02-07T22:59:47.752Z,11.07
2019-02-07T23:02:54.707Z,11.20
2019-02-07T23:06:01.439Z,10.50
2019-02-07T23:09:11.389Z,12.20
2019-02-07T23:12:18.817Z,12.90
2019-02-07T23:15:25.426Z,12.03
2019-02-07T23:18:32.146Z,10.93
2019-02-07T23:21:39.734Z,10.00
2019-02-07T23:24:46.366Z,11.50
2019-02-07T23:27:54.013Z,11.77
2019-02-07T23:31:00.663Z,10.90
2019-02-07T23:34:08.085Z,10.90
2019-02-07T23:37:14.435Z,11.40
2019-02-07T23:40:21.080Z,12.50
2019-02-07T23:43:27.963Z,10.67
2019-02-07T23:46:34.929Z,10.87
2019-02-07T23:49:41.451Z,12.20
2019-02-07T23:52:48.483Z,12.10
2019-02-07T23:55:55.319Z,12.63
2019-02-07T23:59:01.786Z,10.80
